createdAt,value
2023-12-09T00:02:02.109Z,8.70
2023-12-09T00:04:29.798Z,8.70
2023-12-09T00:06:57.396Z,8.70
2023-12-09T00:09:24.959Z,8.70
2023-12-09T00:11:52.553Z,8.70
2023-12-09T00:14:20.106Z,8.70
2023-12-09T00:16:47.682Z,8.60
2023-12-09T00:19:15.463Z,8.70
2023-12-09T00:21:42.878Z,8.60
2023-12-09T00:24:10.509Z,8.90
2023-12-09T00:26:38.088Z,8.90
2023-12-09T00:29:05.670Z,8.80
2023-12-09T00:31:33.234Z,8.70
2023-12-09T00:34:00.970Z,8.70
2023-12-09T00:36:28.484Z,8.60
2023-12-09T00:38:56.071Z,8.60
2023-12-09T00:41:23.653Z,8.50
2023-12-09T00:43:51.225Z,8.50
2023-12-09T00:46:18.793Z,8.50
2023-12-09T00:48:46.521Z,8.50
2023-12-09T00:51:14.075Z,8.40
2023-12-09T00:53:41.655Z,8.40
2023-12-09T00:56:10.178Z,8.70
2023-12-09T00:58:37.744Z,8.70
2023-12-09T01:01:06.170Z,8.90
2023-12-09T01:03:33.824Z,8.90
2023-12-09T01:06:01.296Z,8.80
2023-12-09T01:08:28.853Z,8.70
2023-12-09T01:10:56.475Z,8.60
2023-12-09T01:13:24.843Z,8.50
2023-12-09T01:15:52.399Z,8.50
2023-12-09T01:18:20.114Z,8.50
2023-12-09T01:20:47.623Z,8.40
2023-12-09T01:23:15.962Z,8.60
2023-12-09T01:25:43.635Z,8.60
2023-12-09T01:28:11.184Z,8.60
2023-12-09T01:30:38.908Z,8.40
2023-12-09T01:33:06.487Z,8.40
2023-12-09T01:35:33.973Z,8.30
2023-12-09T01:38:01.564Z,8.30
2023-12-09T01:40:29.199Z,8.60
2023-12-09T01:42:56.782Z,8.50
2023-12-09T01:45:24.383Z,8.40
2023-12-09T01:47:52.919Z,8.30
2023-12-09T01:50:21.182Z,8.30
2023-12-09T01:52:48.653Z,8.30
2023-12-09T01:55:16.310Z,8.20
2023-12-09T01:57:43.864Z,8.20
2023-12-09T02:00:11.702Z,8.20
2023-12-09T02:02:39.313Z,8.20
2023-12-09T02:05:06.885Z,8.60
2023-12-09T02:07:34.425Z,8.50
2023-12-09T02:10:02.814Z,8.70
2023-12-09T02:12:39.080Z,8.60
2023-12-09T02:15:12.169Z,8.60
2023-12-09T02:17:42.490Z,8.50
2023-12-09T02:20:10.007Z,8.40
2023-12-09T02:22:37.691Z,8.40
2023-12-09T02:25:05.282Z,8.40
2023-12-09T02:27:38.823Z,8.60
2023-12-09T02:30:21.486Z,8.50
2023-12-09T02:32:49.078Z,8.40
2023-12-09T02:35:16.553Z,8.70
2023-12-09T02:37:44.167Z,8.60
2023-12-09T02:40:12.622Z,8.50
2023-12-09T02:42:40.285Z,8.40
2023-12-09T02:45:08.722Z,8.40
2023-12-09T02:47:36.271Z,8.30
2023-12-09T02:50:03.830Z,8.30
2023-12-09T02:52:31.421Z,8.30
2023-12-09T02:54:58.995Z,8.40
2023-12-09T02:57:26.596Z,8.30
2023-12-09T02:59:55.007Z,8.30
2023-12-09T03:02:22.551Z,8.30
2023-12-09T03:04:50.174Z,8.60
2023-12-09T03:07:17.788Z,8.60
2023-12-09T03:09:45.335Z,8.50
2023-12-09T03:12:12.915Z,8.50
2023-12-09T03:14:40.484Z,8.40
2023-12-09T03:17:08.059Z,8.40
2023-12-09T03:19:36.537Z,8.80
2023-12-09T03:22:04.015Z,8.70
2023-12-09T03:24:32.393Z,8.60
2023-12-09T03:26:59.934Z,8.60
2023-12-09T03:29:27.567Z,8.60
2023-12-09T03:31:55.105Z,8.60
2023-12-09T03:34:22.785Z,8.90
2023-12-09T03:36:50.304Z,8.80
2023-12-09T03:39:17.909Z,8.70
2023-12-09T03:41:45.442Z,9.00
2023-12-09T03:44:13.048Z,8.90
2023-12-09T03:46:40.620Z,8.80
2023-12-09T03:49:09.098Z,8.70
2023-12-09T03:51:36.629Z,8.70
2023-12-09T03:54:04.178Z,9.00
2023-12-09T03:56:31.753Z,9.20
2023-12-09T03:58:59.364Z,9.00
2023-12-09T04:01:26.955Z,8.90
2023-12-09T04:03:54.654Z,8.80
2023-12-09T04:06:22.188Z,8.70
2023-12-09T04:08:49.734Z,8.70
2023-12-09T04:11:17.310Z,8.60
2023-12-09T04:13:44.910Z,8.60
2023-12-09T04:16:13.253Z,8.60
2023-12-09T04:18:40.895Z,8.60
2023-12-09T04:21:08.447Z,8.60
2023-12-09T04:23:35.989Z,8.50
2023-12-09T04:26:03.554Z,8.90
2023-12-09T04:28:31.952Z,8.70
2023-12-09T04:30:59.522Z,8.70
2023-12-09T04:33:27.135Z,8.70
2023-12-09T04:35:54.763Z,8.70
2023-12-09T04:38:22.290Z,8.70
2023-12-09T04:40:49.862Z,8.70
2023-12-09T04:43:17.473Z,8.60
2023-12-09T04:45:45.030Z,8.60
2023-12-09T04:48:12.738Z,8.60
2023-12-09T04:50:40.227Z,8.60
2023-12-09T04:53:07.803Z,8.50
2023-12-09T04:55:36.156Z,8.50
2023-12-09T04:58:03.757Z,8.50
2023-12-09T05:00:31.354Z,8.40
2023-12-09T05:02:58.942Z,8.40
2023-12-09T05:05:26.606Z,8.40
2023-12-09T05:07:54.123Z,8.40
2023-12-09T05:10:21.689Z,8.40
2023-12-09T05:12:49.295Z,8.40
2023-12-09T05:15:17.663Z,8.50
2023-12-09T05:17:45.681Z,8.50
2023-12-09T05:20:12.978Z,8.50
2023-12-09T05:22:40.556Z,8.50
2023-12-09T05:25:08.948Z,8.80
2023-12-09T05:27:36.581Z,8.80
2023-12-09T05:30:04.154Z,8.80
2023-12-09T05:32:31.689Z,8.70
2023-12-09T05:34:59.305Z,8.70
2023-12-09T05:37:26.951Z,8.70
2023-12-09T05:39:54.451Z,8.60
2023-12-09T05:42:22.108Z,8.60
2023-12-09T05:44:49.650Z,8.60
2023-12-09T05:47:17.272Z,9.00
2023-12-09T05:49:45.735Z,8.80
2023-12-09T05:52:13.981Z,8.80
2023-12-09T05:54:41.592Z,8.80
2023-12-09T05:57:09.969Z,8.70
2023-12-09T05:59:38.302Z,9.00
2023-12-09T06:02:05.916Z,9.00
2023-12-09T06:04:33.579Z,9.00
2023-12-09T06:07:01.178Z,9.20
2023-12-09T06:09:28.710Z,9.10
2023-12-09T06:11:57.114Z,9.10
2023-12-09T06:14:24.658Z,9.10
2023-12-09T06:16:52.242Z,9.00
2023-12-09T06:19:19.858Z,8.90
2023-12-09T06:21:47.432Z,8.80
2023-12-09T06:24:18.168Z,8.80
2023-12-09T06:26:45.367Z,8.70
2023-12-09T06:29:16.020Z,8.70
2023-12-09T06:31:43.563Z,8.60
2023-12-09T06:34:11.373Z,8.60
2023-12-09T06:36:38.834Z,8.60
2023-12-09T06:39:06.446Z,8.50
2023-12-09T06:41:34.743Z,8.70
2023-12-09T06:44:03.075Z,8.60
2023-12-09T06:46:30.661Z,8.60
2023-12-09T06:48:58.421Z,8.50
2023-12-09T06:51:25.890Z,8.80
2023-12-09T06:53:53.435Z,9.00
2023-12-09T06:56:21.106Z,8.80
2023-12-09T06:58:48.631Z,8.70
2023-12-09T07:01:25.135Z,8.60
2023-12-09T07:03:52.868Z,8.50
2023-12-09T07:06:29.393Z,8.40
2023-12-09T07:08:57.078Z,8.40
2023-12-09T07:11:25.309Z,8.30
2023-12-09T07:13:53.668Z,8.20
2023-12-09T07:16:21.235Z,8.20
2023-12-09T07:18:49.899Z,8.50
2023-12-09T07:21:17.358Z,8.50
2023-12-09T07:23:45.670Z,8.70
2023-12-09T07:26:13.336Z,8.60
2023-12-09T07:28:40.826Z,8.50
2023-12-09T07:31:08.413Z,8.70
2023-12-09T07:33:36.278Z,8.60
2023-12-09T07:36:03.652Z,8.50
2023-12-09T07:38:31.195Z,8.40
2023-12-09T07:40:58.823Z,8.40
2023-12-09T07:43:26.438Z,8.40
2023-12-09T07:45:53.966Z,8.30
2023-12-09T07:48:21.877Z,8.30
2023-12-09T07:50:49.313Z,8.20
2023-12-09T07:53:16.901Z,8.60
2023-12-09T07:55:44.522Z,8.50
2023-12-09T07:58:12.075Z,8.80
2023-12-09T08:00:39.763Z,8.60
2023-12-09T08:03:07.326Z,8.50
2023-12-09T08:05:34.871Z,8.50
2023-12-09T08:08:02.412Z,8.40
2023-12-09T08:10:30.036Z,8.40
2023-12-09T08:12:57.599Z,8.40
2023-12-09T08:15:25.238Z,8.40
2023-12-09T08:17:52.889Z,8.30
2023-12-09T08:20:21.148Z,8.30
2023-12-09T08:22:48.708Z,8.30
2023-12-09T08:25:16.350Z,8.30
2023-12-09T08:27:44.032Z,8.60
2023-12-09T08:30:12.254Z,8.50
2023-12-09T08:32:40.114Z,8.70
2023-12-09T08:35:10.156Z,8.60
2023-12-09T08:37:36.076Z,8.60
2023-12-09T08:40:03.709Z,8.50
2023-12-09T08:42:31.646Z,8.50
2023-12-09T08:44:58.896Z,8.50
2023-12-09T08:47:26.525Z,8.50
2023-12-09T08:49:54.165Z,8.40
2023-12-09T08:52:21.638Z,8.50
2023-12-09T08:54:49.278Z,8.50
2023-12-09T08:57:17.650Z,8.40
2023-12-09T08:59:45.222Z,8.40
2023-12-09T09:02:12.851Z,8.40
2023-12-09T09:04:41.230Z,8.60
2023-12-09T09:07:08.766Z,8.60
2023-12-09T09:09:36.451Z,8.60
2023-12-09T09:12:04.054Z,8.50
2023-12-09T09:14:31.596Z,8.50
2023-12-09T09:16:59.238Z,8.40
2023-12-09T09:19:26.886Z,8.40
2023-12-09T09:21:54.387Z,8.40
2023-12-09T09:24:22.067Z,8.40
2023-12-09T09:26:49.625Z,8.40
2023-12-09T09:29:17.168Z,8.40
2023-12-09T09:31:44.801Z,8.40
2023-12-09T09:34:12.526Z,8.40
2023-12-09T09:36:39.996Z,8.40
2023-12-09T09:39:09.558Z,8.40
2023-12-09T09:41:53.373Z,8.40
2023-12-09T09:44:20.998Z,8.40
2023-12-09T09:46:48.574Z,8.40
2023-12-09T09:49:17.000Z,8.40
2023-12-09T09:51:44.590Z,8.40
2023-12-09T09:54:12.116Z,8.40
2023-12-09T09:56:39.666Z,8.70
2023-12-09T09:59:07.299Z,8.70
2023-12-09T10:01:34.889Z,8.60
2023-12-09T10:04:02.633Z,8.50
2023-12-09T10:06:30.146Z,8.50
2023-12-09T10:08:58.471Z,8.40
2023-12-09T10:11:26.016Z,8.40
2023-12-09T10:13:54.415Z,8.30
2023-12-09T10:16:21.993Z,8.30
2023-12-09T10:18:49.727Z,8.30
2023-12-09T10:21:17.270Z,8.20
2023-12-09T10:23:47.865Z,8.20
2023-12-09T10:26:15.514Z,8.50
2023-12-09T10:28:43.087Z,8.40
2023-12-09T10:31:10.646Z,8.30
2023-12-09T10:33:38.422Z,8.20
2023-12-09T10:36:06.774Z,8.10
2023-12-09T10:38:34.323Z,8.10
2023-12-09T10:41:01.891Z,8.10
2023-12-09T10:43:29.524Z,8.10
2023-12-09T10:45:57.106Z,8.10
2023-12-09T10:48:24.830Z,8.10
2023-12-09T10:50:52.321Z,8.10
2023-12-09T10:53:19.939Z,8.10
2023-12-09T10:55:47.599Z,8.10
2023-12-09T10:58:16.007Z,8.40
2023-12-09T11:00:43.752Z,8.40
2023-12-09T11:03:11.231Z,8.30
2023-12-09T11:05:38.777Z,8.30
2023-12-09T11:08:07.125Z,8.30
2023-12-09T11:10:34.694Z,8.20
2023-12-09T11:13:03.085Z,8.20
2023-12-09T11:15:30.704Z,8.20
2023-12-09T11:18:10.920Z,8.20
2023-12-09T11:20:41.009Z,8.20
2023-12-09T11:23:11.758Z,8.20
2023-12-09T11:25:42.095Z,8.20
2023-12-09T11:28:09.602Z,8.10
2023-12-09T11:30:42.742Z,8.50
2023-12-09T11:33:11.258Z,8.30
2023-12-09T11:35:38.710Z,8.30
2023-12-09T11:38:06.282Z,8.20
2023-12-09T11:40:33.936Z,8.20
2023-12-09T11:43:01.526Z,8.10
2023-12-09T11:45:29.119Z,8.10
2023-12-09T11:47:58.192Z,8.10
2023-12-09T11:50:24.269Z,8.40
2023-12-09T11:52:51.845Z,8.30
2023-12-09T11:55:19.622Z,8.30
2023-12-09T11:57:47.196Z,8.20
2023-12-09T12:00:15.657Z,8.10
2023-12-09T12:02:43.991Z,8.20
2023-12-09T12:05:11.580Z,8.10
2023-12-09T12:07:39.108Z,8.10
2023-12-09T12:10:10.097Z,8.10
2023-12-09T12:12:37.718Z,8.20
2023-12-09T12:15:05.288Z,8.20
2023-12-09T12:17:38.715Z,8.20
2023-12-09T12:20:06.583Z,8.10
2023-12-09T12:22:34.144Z,8.20
2023-12-09T12:25:01.782Z,8.50
2023-12-09T12:27:29.360Z,8.40
2023-12-09T12:29:56.931Z,8.60
2023-12-09T12:32:24.668Z,8.60
2023-12-09T12:34:52.225Z,8.50
2023-12-09T12:37:19.686Z,8.40
2023-12-09T12:39:47.321Z,8.40
2023-12-09T12:42:14.914Z,8.30
2023-12-09T12:44:45.439Z,8.30
2023-12-09T12:47:13.075Z,8.20
2023-12-09T12:49:40.799Z,8.30
2023-12-09T12:52:08.237Z,8.20
2023-12-09T12:54:35.893Z,8.30
2023-12-09T12:57:03.472Z,8.60
2023-12-09T12:59:30.987Z,8.50
2023-12-09T13:01:58.631Z,8.50
2023-12-09T13:04:26.227Z,8.40
2023-12-09T13:06:53.784Z,8.40
2023-12-09T13:09:21.434Z,8.40
2023-12-09T13:11:48.978Z,8.40
2023-12-09T13:14:16.542Z,8.40
2023-12-09T13:16:45.130Z,8.40
2023-12-09T13:19:11.767Z,8.40
2023-12-09T13:21:39.455Z,8.40
2023-12-09T13:24:06.991Z,8.40
2023-12-09T13:26:34.534Z,8.30
2023-12-09T13:29:02.128Z,8.60
2023-12-09T13:31:29.744Z,8.50
2023-12-09T13:33:57.425Z,8.50
2023-12-09T13:36:25.003Z,8.70
2023-12-09T13:38:52.523Z,8.60
2023-12-09T13:41:20.179Z,8.50
2023-12-09T13:43:47.658Z,8.40
2023-12-09T13:46:15.299Z,8.40
2023-12-09T13:48:43.714Z,8.20
2023-12-09T13:51:11.182Z,8.20
2023-12-09T13:53:38.808Z,8.20
2023-12-09T13:56:06.710Z,8.20
2023-12-09T13:58:34.251Z,8.20
2023-12-09T14:01:02.003Z,8.50
2023-12-09T14:03:29.507Z,8.40
2023-12-09T14:05:57.033Z,8.30
2023-12-09T14:08:24.668Z,8.30
2023-12-09T14:10:52.230Z,8.30
2023-12-09T14:13:19.806Z,8.20
2023-12-09T14:15:47.482Z,8.20
2023-12-09T14:18:15.083Z,8.10
2023-12-09T14:20:42.566Z,8.10
2023-12-09T14:23:10.197Z,8.10
2023-12-09T14:25:38.540Z,8.00
2023-12-09T14:28:06.092Z,8.00
2023-12-09T14:30:33.765Z,8.00
2023-12-09T14:33:01.394Z,8.00
2023-12-09T14:35:28.975Z,8.00
2023-12-09T14:37:56.480Z,8.00
2023-12-09T14:40:24.835Z,8.00
2023-12-09T14:42:52.456Z,8.00
2023-12-09T14:45:20.897Z,8.30
2023-12-09T14:47:54.339Z,8.30
2023-12-09T14:50:16.039Z,8.20
2023-12-09T14:52:43.539Z,8.20
2023-12-09T14:55:11.143Z,8.10
2023-12-09T14:57:38.715Z,8.10
2023-12-09T15:00:07.202Z,8.00
2023-12-09T15:02:34.751Z,8.00
2023-12-09T15:05:02.372Z,8.00
2023-12-09T15:07:29.966Z,8.00
2023-12-09T15:09:57.530Z,7.90
2023-12-09T15:12:25.179Z,8.00
2023-12-09T15:14:52.759Z,7.90
2023-12-09T15:17:20.359Z,7.90
2023-12-09T15:19:47.959Z,7.90
2023-12-09T15:22:15.538Z,7.90
2023-12-09T15:24:43.133Z,7.90
2023-12-09T15:27:10.720Z,8.20
2023-12-09T15:29:38.328Z,8.20
2023-12-09T15:32:05.900Z,8.10
2023-12-09T15:34:33.602Z,8.40
2023-12-09T15:37:01.089Z,8.20
2023-12-09T15:39:28.704Z,8.10
2023-12-09T15:41:56.224Z,8.40
2023-12-09T15:44:23.857Z,8.30
2023-12-09T15:46:51.433Z,8.20
2023-12-09T15:49:19.027Z,8.20
2023-12-09T15:51:46.637Z,8.10
2023-12-09T15:54:14.976Z,8.10
2023-12-09T15:56:42.538Z,8.00
2023-12-09T15:59:10.165Z,8.00
2023-12-09T16:01:37.831Z,8.30
2023-12-09T16:04:05.470Z,8.50
2023-12-09T16:06:33.719Z,8.30
2023-12-09T16:09:01.258Z,8.30
2023-12-09T16:11:28.842Z,8.20
2023-12-09T16:13:57.226Z,8.00
2023-12-09T16:16:24.789Z,8.00
2023-12-09T16:18:52.508Z,8.00
2023-12-09T16:21:20.068Z,8.00
2023-12-09T16:23:47.573Z,8.00
2023-12-09T16:26:15.155Z,8.00
2023-12-09T16:28:42.772Z,8.00
2023-12-09T16:31:11.198Z,8.30
2023-12-09T16:33:38.858Z,8.30
2023-12-09T16:36:06.394Z,8.30
2023-12-09T16:38:36.677Z,8.60
2023-12-09T16:41:04.236Z,8.50
2023-12-09T16:43:31.878Z,8.70
2023-12-09T16:45:59.452Z,8.60
2023-12-09T16:48:27.182Z,8.90
2023-12-09T16:50:54.642Z,8.80
2023-12-09T16:53:22.203Z,8.60
2023-12-09T16:55:49.780Z,8.50
2023-12-09T16:58:17.421Z,8.50
2023-12-09T17:00:45.059Z,8.40
2023-12-09T17:03:12.605Z,8.40
2023-12-09T17:05:40.184Z,8.30
2023-12-09T17:08:07.710Z,8.30
2023-12-09T17:10:35.299Z,8.30
2023-12-09T17:13:03.744Z,8.30
2023-12-09T17:15:31.356Z,8.20
2023-12-09T17:17:59.752Z,8.30
2023-12-09T17:20:27.329Z,8.30
2023-12-09T17:22:54.887Z,8.30
2023-12-09T17:25:22.596Z,8.30
2023-12-09T17:27:50.152Z,8.30
2023-12-09T17:30:17.778Z,8.30
2023-12-09T17:32:45.276Z,8.40
2023-12-09T17:35:13.012Z,8.70
2023-12-09T17:37:40.557Z,9.00
2023-12-09T17:40:08.289Z,8.90
2023-12-09T17:42:36.815Z,9.20
2023-12-09T17:45:04.335Z,9.10
2023-12-09T17:47:31.884Z,9.10
2023-12-09T17:49:59.506Z,9.00
2023-12-09T17:52:27.162Z,9.00
2023-12-09T17:54:54.610Z,8.90
2023-12-09T17:57:23.131Z,9.50
2023-12-09T17:59:50.575Z,9.50
2023-12-09T18:02:18.150Z,9.30
2023-12-09T18:04:46.773Z,9.20
2023-12-09T18:07:13.364Z,9.10
2023-12-09T18:09:41.004Z,9.10
2023-12-09T18:12:09.601Z,9.10
2023-12-09T18:14:37.120Z,9.10
2023-12-09T18:17:04.706Z,9.10
2023-12-09T18:19:33.534Z,9.50
2023-12-09T18:22:01.723Z,9.50
2023-12-09T18:24:29.344Z,9.50
2023-12-09T18:26:56.929Z,9.50
2023-12-09T18:29:24.527Z,9.40
2023-12-09T18:31:52.052Z,9.70
2023-12-09T18:34:19.791Z,9.70
2023-12-09T18:36:47.382Z,9.70
2023-12-09T18:39:14.839Z,9.60
2023-12-09T18:41:42.435Z,9.60
2023-12-09T18:44:10.010Z,9.60
2023-12-09T18:46:38.355Z,9.70
2023-12-09T18:49:06.076Z,9.70
2023-12-09T18:51:33.580Z,9.70
2023-12-09T18:54:01.117Z,9.80
2023-12-09T18:56:28.742Z,9.80
2023-12-09T18:58:58.194Z,9.80
2023-12-09T19:01:25.824Z,9.80
2023-12-09T19:03:53.480Z,9.90
2023-12-09T19:06:21.095Z,10.30
2023-12-09T19:08:48.598Z,10.20
2023-12-09T19:11:16.517Z,10.20
2023-12-09T19:13:44.091Z,10.20
2023-12-09T19:16:12.427Z,10.50
2023-12-09T19:18:40.409Z,10.60
2023-12-09T19:21:07.931Z,10.50
2023-12-09T19:23:35.482Z,10.40
2023-12-09T19:26:03.130Z,10.40
2023-12-09T19:28:31.453Z,10.40
2023-12-09T19:30:59.128Z,10.40
2023-12-09T19:33:26.865Z,10.40
2023-12-09T19:35:54.323Z,10.70
2023-12-09T19:38:21.865Z,11.00
2023-12-09T19:40:49.520Z,10.90
2023-12-09T19:43:17.101Z,10.80
2023-12-09T19:45:44.733Z,10.80
2023-12-09T19:48:12.415Z,10.80
2023-12-09T19:50:41.257Z,10.80
2023-12-09T19:53:09.292Z,11.10
2023-12-09T19:55:36.921Z,11.10
2023-12-09T19:58:04.893Z,11.00
2023-12-09T20:00:32.743Z,11.00
2023-12-09T20:03:00.285Z,10.90
2023-12-09T20:05:27.858Z,11.00
2023-12-09T20:07:56.193Z,11.20
2023-12-09T20:10:23.858Z,11.20
2023-12-09T20:12:51.549Z,11.10
2023-12-09T20:15:19.106Z,11.10
2023-12-09T20:17:46.694Z,11.00
2023-12-09T20:20:14.323Z,11.30
2023-12-09T20:22:42.580Z,11.00
2023-12-09T20:25:10.389Z,11.00
2023-12-09T20:27:37.988Z,10.90
2023-12-09T20:30:05.656Z,10.90
2023-12-09T20:32:34.206Z,11.00
2023-12-09T20:35:02.416Z,10.90
2023-12-09T20:37:30.007Z,10.90
2023-12-09T20:39:57.651Z,10.80
2023-12-09T20:42:25.295Z,10.70
2023-12-09T20:44:52.810Z,10.60
2023-12-09T20:47:20.541Z,10.50
2023-12-09T20:49:48.184Z,10.50
2023-12-09T20:52:16.455Z,10.60
2023-12-09T20:54:47.022Z,10.60
2023-12-09T20:57:11.659Z,10.60
2023-12-09T20:59:39.225Z,10.50
2023-12-09T21:02:06.856Z,10.50
2023-12-09T21:04:34.430Z,10.40
2023-12-09T21:07:02.018Z,10.30
2023-12-09T21:09:32.983Z,10.30
2023-12-09T21:12:00.514Z,10.20
2023-12-09T21:14:28.078Z,10.20
2023-12-09T21:16:55.948Z,10.10
2023-12-09T21:19:23.646Z,10.10
2023-12-09T21:21:52.253Z,10.40
2023-12-09T21:24:19.861Z,10.70
2023-12-09T21:26:47.466Z,10.80
2023-12-09T21:29:15.798Z,10.80
2023-12-09T21:31:43.441Z,10.80
2023-12-09T21:34:11.092Z,10.60
2023-12-09T21:36:38.619Z,10.50
2023-12-09T21:39:06.310Z,10.30
2023-12-09T21:41:33.845Z,10.30
2023-12-09T21:44:01.424Z,10.20
2023-12-09T21:46:29.058Z,10.20
2023-12-09T21:48:56.717Z,10.10
2023-12-09T21:51:24.284Z,10.10
2023-12-09T21:53:51.872Z,10.10
2023-12-09T21:56:28.259Z,10.40
2023-12-09T21:58:55.841Z,10.60
2023-12-09T22:01:23.507Z,10.50
2023-12-09T22:03:51.724Z,10.40
2023-12-09T22:06:20.061Z,10.50
2023-12-09T22:08:47.688Z,10.50
2023-12-09T22:11:15.277Z,10.40
2023-12-09T22:13:42.850Z,10.30
2023-12-09T22:16:11.256Z,10.50
2023-12-09T22:18:39.711Z,10.40
2023-12-09T22:21:07.227Z,10.40
2023-12-09T22:23:34.837Z,10.30
2023-12-09T22:28:39.406Z,10.30
2023-12-09T22:31:06.986Z,10.30
2023-12-09T22:33:34.720Z,10.20
2023-12-09T22:36:02.217Z,10.20
2023-12-09T22:38:29.790Z,10.20
2023-12-09T22:40:57.483Z,10.60
2023-12-09T22:43:25.785Z,10.50
2023-12-09T22:45:53.491Z,10.40
2023-12-09T22:48:21.161Z,10.40
2023-12-09T22:50:48.627Z,10.30
2023-12-09T22:53:16.172Z,10.30
2023-12-09T22:55:44.518Z,10.50
2023-12-09T22:58:12.147Z,10.50
2023-12-09T23:00:39.837Z,10.40
2023-12-09T23:03:07.409Z,10.30
2023-12-09T23:05:34.946Z,10.30
2023-12-09T23:08:02.533Z,10.20
2023-12-09T23:10:30.134Z,10.50
2023-12-09T23:12:57.818Z,10.40
2023-12-09T23:15:25.373Z,10.40
2023-12-09T23:17:53.013Z,10.40
2023-12-09T23:20:21.299Z,10.30
2023-12-09T23:22:48.896Z,10.30
2023-12-09T23:25:16.448Z,10.30
2023-12-09T23:27:44.176Z,10.30
2023-12-09T23:30:11.860Z,10.30
2023-12-09T23:32:40.201Z,10.30
2023-12-09T23:35:07.840Z,10.30
2023-12-09T23:37:35.434Z,10.30
2023-12-09T23:40:03.770Z,10.50
2023-12-09T23:42:31.554Z,10.50
2023-12-09T23:44:58.989Z,10.40
2023-12-09T23:47:26.637Z,10.60
2023-12-09T23:49:54.957Z,10.80
2023-12-09T23:52:23.297Z,10.60
2023-12-09T23:54:50.900Z,10.60
2023-12-09T23:57:18.535Z,10.50
2023-12-09T23:59:46.054Z,10.50
